createdAt,value
2023-04-29T00:02:05.309Z,4.75
2023-04-29T00:04:35.200Z,4.68
2023-04-29T00:07:03.732Z,4.60
2023-04-29T00:09:32.201Z,4.52
2023-04-29T00:12:00.682Z,4.47
2023-04-29T00:14:28.868Z,4.44
2023-04-29T00:16:57.467Z,4.42
2023-04-29T00:19:25.826Z,4.42
2023-04-29T00:21:54.922Z,4.40
2023-04-29T00:24:23.198Z,4.38
2023-04-29T00:26:51.978Z,4.37
2023-04-29T00:29:20.875Z,4.36
2023-04-29T00:31:49.231Z,4.35
2023-04-29T00:34:17.510Z,4.32
2023-04-29T00:36:45.697Z,4.29
2023-04-29T00:39:15.305Z,4.27
2023-04-29T00:41:45.119Z,4.24
2023-04-29T00:44:13.498Z,4.22
2023-04-29T00:46:41.804Z,4.23
2023-04-29T00:49:11.052Z,4.27
2023-04-29T00:51:39.349Z,4.40
2023-04-29T00:54:08.266Z,4.52
2023-04-29T00:56:36.947Z,4.57
2023-04-29T00:59:06.141Z,4.59
2023-04-29T01:01:35.460Z,4.60
2023-04-29T01:04:05.628Z,4.54
2023-04-29T01:06:47.443Z,4.44
2023-04-29T01:09:19.404Z,4.29
2023-04-29T01:12:07.000Z,4.15
2023-04-29T01:14:35.216Z,3.98
2023-04-29T01:17:07.082Z,3.84
2023-04-29T01:19:44.462Z,3.69
2023-04-29T01:22:14.794Z,3.54
2023-04-29T01:24:43.586Z,3.46
2023-04-29T01:27:33.770Z,3.47
2023-04-29T01:30:27.133Z,3.45
2023-04-29T01:33:01.496Z,3.38
2023-04-29T01:35:46.420Z,3.32
2023-04-29T01:38:30.589Z,3.29
2023-04-29T01:41:11.237Z,3.27
2023-04-29T01:43:39.989Z,3.24
2023-04-29T01:46:19.874Z,3.21
2023-04-29T01:48:48.743Z,3.17
2023-04-29T01:51:17.752Z,3.16
2023-04-29T01:53:45.946Z,3.20
2023-04-29T01:56:14.205Z,3.24
2023-04-29T01:58:51.285Z,3.25
2023-04-29T02:01:56.836Z,3.25
2023-04-29T02:04:25.879Z,3.25
2023-04-29T02:06:54.111Z,3.28
2023-04-29T02:09:22.562Z,3.28
2023-04-29T02:11:54.752Z,3.27
2023-04-29T02:14:23.136Z,3.27
2023-04-29T02:16:51.554Z,3.24
2023-04-29T02:19:19.790Z,3.24
2023-04-29T02:21:48.171Z,3.30
2023-04-29T02:24:16.453Z,3.33
2023-04-29T02:26:44.733Z,3.32
2023-04-29T02:29:12.900Z,3.28
2023-04-29T02:31:41.335Z,3.23
2023-04-29T02:34:09.902Z,3.17
2023-04-29T02:36:38.241Z,3.09
2023-04-29T02:39:06.825Z,3.03
2023-04-29T02:41:35.103Z,2.98
2023-04-29T02:44:03.276Z,2.91
2023-04-29T02:46:33.702Z,2.90
2023-04-29T02:49:02.399Z,2.97
2023-04-29T02:51:31.085Z,3.01
2023-04-29T02:53:59.796Z,3.05
2023-04-29T02:56:28.352Z,3.09
2023-04-29T02:58:56.633Z,3.09
2023-04-29T03:01:24.988Z,3.09
2023-04-29T03:03:54.254Z,3.11
2023-04-29T03:06:22.685Z,3.12
2023-04-29T03:08:53.226Z,3.13
2023-04-29T03:11:24.881Z,3.14
2023-04-29T03:13:53.145Z,3.16
2023-04-29T03:16:22.371Z,3.21
2023-04-29T03:18:50.823Z,3.22
2023-04-29T03:21:19.872Z,3.23
2023-04-29T03:23:48.091Z,3.24
2023-04-29T03:26:24.548Z,3.26
2023-04-29T03:28:53.038Z,3.28
2023-04-29T03:31:23.142Z,3.29
2023-04-29T03:33:53.693Z,3.28
2023-04-29T03:36:22.165Z,3.28
2023-04-29T03:39:08.569Z,3.28
2023-04-29T03:41:37.469Z,3.31
2023-04-29T03:44:05.837Z,3.41
2023-04-29T03:46:34.132Z,3.46
2023-04-29T03:49:03.008Z,3.49
2023-04-29T03:51:31.484Z,3.50
2023-04-29T03:54:10.202Z,3.52
2023-04-29T03:56:38.582Z,3.56
2023-04-29T03:59:07.070Z,3.60
2023-04-29T04:01:35.363Z,3.64
2023-04-29T04:04:04.160Z,3.67
2023-04-29T04:06:32.934Z,3.70
2023-04-29T04:09:01.605Z,3.72
2023-04-29T04:11:32.067Z,3.79
2023-04-29T04:14:06.765Z,3.88
2023-04-29T04:16:35.101Z,3.94
2023-04-29T04:19:03.955Z,3.97
2023-04-29T04:21:33.063Z,4.00
2023-04-29T04:24:05.902Z,4.04
2023-04-29T04:26:34.700Z,4.07
2023-04-29T04:29:02.873Z,4.15
2023-04-29T04:31:51.401Z,4.22
2023-04-29T04:34:20.525Z,4.29
2023-04-29T04:36:50.654Z,4.38
2023-04-29T04:39:19.131Z,4.50
2023-04-29T04:41:47.720Z,4.72
2023-04-29T04:44:16.803Z,5.22
2023-04-29T04:47:05.558Z,5.82
2023-04-29T04:49:54.257Z,6.39
2023-04-29T04:52:23.218Z,6.88
2023-04-29T04:55:13.862Z,7.40
2023-04-29T04:57:45.266Z,7.76
2023-04-29T05:00:14.155Z,8.02
2023-04-29T05:02:43.495Z,8.26
2023-04-29T05:05:12.141Z,8.44
2023-04-29T05:07:40.521Z,8.68
2023-04-29T05:10:10.805Z,8.95
2023-04-29T05:12:46.009Z,9.25
2023-04-29T05:15:19.278Z,9.53
2023-04-29T05:17:47.597Z,9.88
2023-04-29T05:20:15.929Z,10.09
2023-04-29T05:22:44.127Z,10.24
2023-04-29T05:25:14.127Z,10.49
2023-04-29T05:27:42.428Z,10.85
2023-04-29T05:30:13.967Z,11.10
2023-04-29T05:32:42.489Z,11.35
2023-04-29T05:35:12.858Z,11.59
2023-04-29T05:37:41.443Z,11.86
2023-04-29T05:40:19.692Z,12.01
2023-04-29T05:42:48.489Z,12.19
2023-04-29T05:45:16.821Z,12.45
2023-04-29T05:47:45.117Z,12.72
2023-04-29T05:50:13.282Z,12.94
2023-04-29T05:52:41.960Z,13.02
2023-04-29T05:55:10.747Z,13.17
2023-04-29T05:57:40.637Z,13.47
2023-04-29T06:00:09.962Z,13.67
2023-04-29T06:02:54.814Z,13.79
2023-04-29T06:05:27.911Z,14.02
2023-04-29T06:08:11.146Z,14.28
2023-04-29T06:10:48.030Z,14.67
2023-04-29T06:13:17.016Z,14.94
2023-04-29T06:15:46.039Z,15.23
2023-04-29T06:18:15.732Z,15.58
2023-04-29T06:20:44.489Z,15.67
2023-04-29T06:23:12.988Z,15.66
2023-04-29T06:25:41.673Z,15.80
2023-04-29T06:28:11.292Z,15.71
2023-04-29T06:30:40.699Z,15.73
2023-04-29T06:33:09.538Z,15.94
2023-04-29T06:35:41.743Z,16.16
2023-04-29T06:38:44.125Z,16.33
2023-04-29T06:41:30.834Z,16.38
2023-04-29T06:44:18.279Z,16.53
2023-04-29T06:47:12.882Z,16.81
2023-04-29T06:49:46.459Z,17.10
2023-04-29T06:52:15.133Z,17.10
2023-04-29T06:54:45.969Z,17.25
2023-04-29T06:57:14.253Z,17.24
2023-04-29T06:59:42.835Z,17.13
2023-04-29T07:02:11.533Z,17.31
2023-04-29T07:04:41.192Z,17.60
2023-04-29T07:07:09.710Z,17.85
2023-04-29T07:09:37.881Z,17.91
2023-04-29T07:12:06.754Z,18.18
2023-04-29T07:14:34.960Z,18.17
2023-04-29T07:17:03.234Z,18.38
2023-04-29T07:19:32.220Z,18.22
2023-04-29T07:22:00.593Z,18.09
2023-04-29T07:24:28.958Z,18.33
2023-04-29T07:26:57.567Z,18.48
2023-04-29T07:29:25.718Z,18.79
2023-04-29T07:31:54.018Z,18.65
2023-04-29T07:34:22.703Z,18.73
2023-04-29T07:36:50.873Z,18.68
2023-04-29T07:39:19.580Z,18.57
2023-04-29T07:41:51.274Z,18.47
2023-04-29T07:44:19.416Z,18.50
2023-04-29T07:46:48.460Z,18.48
2023-04-29T07:49:16.988Z,18.51
2023-04-29T07:51:45.213Z,18.99
2023-04-29T07:54:13.338Z,19.31
2023-04-29T07:56:41.515Z,19.54
2023-04-29T07:59:09.662Z,19.52
2023-04-29T08:01:38.761Z,19.56
2023-04-29T08:04:08.147Z,19.73
2023-04-29T08:06:44.833Z,19.98
2023-04-29T08:09:13.720Z,20.27
2023-04-29T08:11:44.046Z,20.18
2023-04-29T08:14:14.381Z,20.45
2023-04-29T08:16:42.631Z,20.58
2023-04-29T08:19:11.640Z,20.45
2023-04-29T08:21:39.919Z,20.39
2023-04-29T08:24:08.513Z,20.50
2023-04-29T08:26:36.651Z,20.28
2023-04-29T08:29:04.746Z,20.10
2023-04-29T08:31:33.363Z,20.28
2023-04-29T08:34:01.928Z,20.52
2023-04-29T08:36:30.096Z,20.45
2023-04-29T08:38:58.370Z,20.50
2023-04-29T08:41:27.051Z,20.53
2023-04-29T08:43:55.207Z,20.55
2023-04-29T08:46:25.788Z,20.63
2023-04-29T08:48:54.285Z,20.52
2023-04-29T08:51:22.465Z,20.57
2023-04-29T08:53:51.245Z,20.82
2023-04-29T08:56:20.930Z,21.00
2023-04-29T08:58:54.996Z,20.97
2023-04-29T09:01:23.389Z,21.00
2023-04-29T09:04:03.882Z,21.07
2023-04-29T09:06:35.110Z,21.44
2023-04-29T09:09:03.941Z,21.43
2023-04-29T09:11:32.082Z,21.09
2023-04-29T09:14:01.582Z,21.10
2023-04-29T09:16:29.861Z,21.27
2023-04-29T09:18:58.481Z,21.53
2023-04-29T09:21:32.416Z,21.59
2023-04-29T09:24:01.868Z,21.83
2023-04-29T09:26:44.597Z,21.85
2023-04-29T09:29:18.643Z,22.15
2023-04-29T09:31:47.314Z,22.02
2023-04-29T09:34:15.449Z,22.01
2023-04-29T09:36:48.785Z,22.08
2023-04-29T09:39:17.940Z,22.33
2023-04-29T09:41:55.195Z,22.47
2023-04-29T09:44:25.375Z,21.98
2023-04-29T09:46:57.810Z,22.15
2023-04-29T09:49:27.334Z,22.65
2023-04-29T09:51:59.586Z,22.94
2023-04-29T09:54:29.403Z,23.26
2023-04-29T09:56:59.163Z,23.45
2023-04-29T09:59:27.425Z,23.50
2023-04-29T10:01:57.626Z,23.19
2023-04-29T10:04:28.107Z,22.90
2023-04-29T10:06:56.676Z,23.21
2023-04-29T10:09:25.010Z,23.36
2023-04-29T10:11:53.676Z,23.75
2023-04-29T10:14:22.792Z,23.95
2023-04-29T10:17:00.446Z,24.01
2023-04-29T10:19:38.161Z,23.75
2023-04-29T10:22:09.423Z,23.01
2023-04-29T10:24:38.136Z,22.89
2023-04-29T10:27:12.393Z,23.31
2023-04-29T10:29:41.830Z,23.82
2023-04-29T10:32:11.032Z,24.09
2023-04-29T10:34:42.479Z,24.32
2023-04-29T10:37:11.676Z,24.15
2023-04-29T10:39:43.333Z,23.84
2023-04-29T10:42:26.518Z,23.77
2023-04-29T10:45:19.751Z,24.04
2023-04-29T10:48:08.696Z,24.18
2023-04-29T10:50:43.866Z,23.67
2023-04-29T10:53:11.939Z,23.50
2023-04-29T10:55:40.216Z,23.55
2023-04-29T10:58:44.998Z,23.48
2023-04-29T11:01:17.623Z,23.65
2023-04-29T11:03:46.654Z,23.92
2023-04-29T11:06:15.797Z,24.30
2023-04-29T11:08:45.073Z,24.80
2023-04-29T11:11:16.048Z,24.50
2023-04-29T11:13:46.236Z,24.37
2023-04-29T11:16:14.610Z,24.55
2023-04-29T11:19:07.074Z,24.23
2023-04-29T11:21:36.766Z,23.88
2023-04-29T11:24:06.588Z,24.19
2023-04-29T11:26:35.739Z,24.71
2023-04-29T11:29:05.564Z,24.87
2023-04-29T11:31:33.934Z,24.71
2023-04-29T11:34:04.402Z,24.66
2023-04-29T11:36:33.461Z,24.63
2023-04-29T11:39:03.866Z,24.31
2023-04-29T11:41:32.249Z,24.45
2023-04-29T11:44:01.400Z,24.74
2023-04-29T11:46:34.243Z,24.80
2023-04-29T11:49:02.532Z,24.82
2023-04-29T11:51:30.633Z,24.94
2023-04-29T11:53:58.747Z,24.84
2023-04-29T11:56:27.130Z,24.89
2023-04-29T11:58:56.977Z,25.19
2023-04-29T12:01:25.972Z,24.99
2023-04-29T12:03:59.386Z,24.88
2023-04-29T12:06:30.028Z,24.76
2023-04-29T12:09:01.853Z,24.87
2023-04-29T12:11:30.764Z,24.57
2023-04-29T12:14:01.777Z,24.16
2023-04-29T12:16:30.788Z,23.41
2023-04-29T12:18:59.759Z,23.64
2023-04-29T12:21:27.863Z,23.78
2023-04-29T12:23:59.757Z,23.75
2023-04-29T12:26:29.030Z,24.13
2023-04-29T12:29:00.274Z,24.31
2023-04-29T12:31:37.139Z,24.26
2023-04-29T12:34:08.268Z,24.51
2023-04-29T12:36:38.047Z,24.66
2023-04-29T12:39:09.703Z,25.00
2023-04-29T12:41:41.534Z,24.98
2023-04-29T12:44:12.806Z,24.86
2023-04-29T12:46:41.957Z,24.79
2023-04-29T12:49:10.240Z,24.75
2023-04-29T12:51:38.399Z,25.11
2023-04-29T12:54:07.479Z,24.83
2023-04-29T12:56:35.888Z,24.48
2023-04-29T12:59:10.311Z,24.59
2023-04-29T13:01:39.232Z,24.67
2023-04-29T13:04:09.346Z,24.58
2023-04-29T13:06:42.135Z,24.47
2023-04-29T13:09:17.895Z,24.50
2023-04-29T13:11:47.483Z,24.25
2023-04-29T13:14:16.514Z,24.20
2023-04-29T13:16:45.515Z,24.29
2023-04-29T13:19:32.221Z,24.26
2023-04-29T13:22:01.983Z,24.06
2023-04-29T13:24:30.457Z,24.06
2023-04-29T13:26:58.626Z,24.11
2023-04-29T13:29:27.120Z,23.96
2023-04-29T13:31:55.441Z,24.08
2023-04-29T13:34:23.865Z,24.04
2023-04-29T13:36:52.245Z,23.86
2023-04-29T13:39:23.028Z,23.81
2023-04-29T13:41:51.767Z,23.89
2023-04-29T13:44:29.596Z,23.85
2023-04-29T13:47:01.890Z,24.07
2023-04-29T13:50:03.431Z,24.06
2023-04-29T13:55:12.371Z,24.04
2023-04-29T14:00:37.413Z,23.20
2023-04-29T14:05:32.611Z,22.63
2023-04-29T14:08:01.130Z,22.80
2023-04-29T14:10:29.763Z,23.00
2023-04-29T14:12:58.495Z,23.02
2023-04-29T14:15:26.944Z,23.15
2023-04-29T14:17:55.420Z,23.37
2023-04-29T14:20:23.600Z,23.16
2023-04-29T14:22:51.852Z,23.28
2023-04-29T14:25:20.130Z,23.17
2023-04-29T14:27:49.542Z,23.01
2023-04-29T14:30:17.720Z,22.82
2023-04-29T14:32:46.720Z,22.93
2023-04-29T14:35:15.390Z,22.71
2023-04-29T14:37:43.664Z,22.40
2023-04-29T14:40:12.461Z,22.27
2023-04-29T14:42:40.633Z,22.25
2023-04-29T14:45:09.637Z,22.21
2023-04-29T14:47:37.922Z,21.78
2023-04-29T14:50:07.445Z,21.62
2023-04-29T14:52:35.675Z,21.42
2023-04-29T14:55:04.776Z,21.30
2023-04-29T14:57:33.052Z,21.00
2023-04-29T15:00:01.629Z,20.72
2023-04-29T15:02:29.844Z,20.52
2023-04-29T15:04:57.945Z,20.31
2023-04-29T15:07:26.149Z,20.33
2023-04-29T15:09:54.429Z,20.31
2023-04-29T15:12:23.124Z,20.17
2023-04-29T15:14:52.962Z,19.98
2023-04-29T15:17:21.680Z,19.74
2023-04-29T15:19:50.003Z,19.54
2023-04-29T15:22:18.373Z,19.24
2023-04-29T15:27:17.593Z,18.92
2023-04-29T15:29:45.773Z,18.44
2023-04-29T15:32:14.583Z,18.29
2023-04-29T15:34:42.670Z,18.06
2023-04-29T15:37:11.141Z,17.78
2023-04-29T15:39:39.279Z,17.64
2023-04-29T15:42:07.709Z,17.54
2023-04-29T15:44:35.933Z,17.53
2023-04-29T15:47:04.119Z,17.41
2023-04-29T15:49:32.387Z,17.30
2023-04-29T15:52:01.284Z,17.07
2023-04-29T15:54:29.370Z,16.89
2023-04-29T15:56:57.528Z,16.79
2023-04-29T15:59:27.231Z,16.69
2023-04-29T16:01:57.119Z,16.63
2023-04-29T16:04:25.554Z,16.49
2023-04-29T16:06:54.108Z,16.43
2023-04-29T16:09:22.392Z,16.32
2023-04-29T16:11:53.330Z,16.29
2023-04-29T16:14:21.507Z,16.23
2023-04-29T16:16:50.209Z,16.13
2023-04-29T16:19:18.362Z,16.07
2023-04-29T16:21:47.251Z,16.02
2023-04-29T16:24:15.641Z,16.00
2023-04-29T16:26:44.012Z,15.84
2023-04-29T16:29:13.641Z,15.71
2023-04-29T16:31:41.840Z,15.64
2023-04-29T16:34:10.885Z,15.54
2023-04-29T16:36:39.166Z,15.45
2023-04-29T16:39:07.543Z,15.33
2023-04-29T16:41:35.711Z,15.21
2023-04-29T16:44:04.009Z,14.97
2023-04-29T16:46:32.922Z,14.78
2023-04-29T16:49:01.367Z,14.64
2023-04-29T16:51:29.556Z,14.52
2023-04-29T16:53:58.024Z,14.44
2023-04-29T16:56:26.475Z,14.30
2023-04-29T16:59:13.020Z,14.19
2023-04-29T17:01:41.312Z,14.08
2023-04-29T17:04:09.746Z,13.95
2023-04-29T17:06:38.637Z,13.84
2023-04-29T17:09:07.683Z,13.72
2023-04-29T17:11:35.826Z,13.57
2023-04-29T17:14:04.208Z,13.44
2023-04-29T17:16:33.283Z,13.32
2023-04-29T17:19:01.678Z,13.21
2023-04-29T17:21:31.190Z,13.10
2023-04-29T17:23:59.668Z,12.98
2023-04-29T17:26:28.054Z,12.88
2023-04-29T17:28:56.174Z,12.75
2023-04-29T17:31:25.841Z,12.60
2023-04-29T17:34:05.583Z,12.47
2023-04-29T17:36:33.767Z,12.31
2023-04-29T17:39:01.919Z,12.15
2023-04-29T17:41:30.035Z,12.00
2023-04-29T17:43:58.168Z,11.86
2023-04-29T17:46:26.595Z,11.72
2023-04-29T17:48:54.962Z,11.57
2023-04-29T17:51:23.213Z,11.43
2023-04-29T17:53:52.659Z,11.29
2023-04-29T17:56:23.474Z,11.14
2023-04-29T17:58:52.433Z,10.99
2023-04-29T18:01:20.698Z,10.82
2023-04-29T18:03:51.130Z,10.69
2023-04-29T18:06:19.474Z,10.57
2023-04-29T18:08:47.908Z,10.43
2023-04-29T18:11:16.179Z,10.29
2023-04-29T18:13:44.351Z,10.16
2023-04-29T18:16:12.530Z,10.01
2023-04-29T18:18:41.116Z,9.78
2023-04-29T18:21:09.275Z,9.66
2023-04-29T18:23:40.028Z,9.54
2023-04-29T18:26:08.804Z,9.43
2023-04-29T18:28:37.180Z,9.35
2023-04-29T18:31:05.999Z,9.27
2023-04-29T18:33:36.391Z,9.18
2023-04-29T18:36:05.184Z,9.10
2023-04-29T18:38:33.498Z,9.01
2023-04-29T18:41:06.346Z,8.92
2023-04-29T18:43:35.249Z,8.81
2023-04-29T18:46:03.432Z,8.71
2023-04-29T18:48:31.684Z,8.63
2023-04-29T18:51:04.052Z,8.56
2023-04-29T18:53:32.228Z,8.50
2023-04-29T18:56:02.164Z,8.43
2023-04-29T18:58:30.725Z,8.36
2023-04-29T19:01:00.352Z,8.30
2023-04-29T19:03:29.029Z,8.26
2023-04-29T19:05:58.255Z,8.21
2023-04-29T19:08:26.547Z,8.14
2023-04-29T19:10:54.884Z,8.11
2023-04-29T19:13:24.582Z,8.08
2023-04-29T19:15:55.127Z,8.06
2023-04-29T19:18:24.116Z,8.06
2023-04-29T19:20:53.816Z,8.04
2023-04-29T19:23:22.423Z,8.03
2023-04-29T19:25:50.537Z,8.01
2023-04-29T19:28:19.475Z,7.99
2023-04-29T19:30:49.175Z,7.99
2023-04-29T19:33:17.702Z,8.04
2023-04-29T19:35:46.148Z,8.05
2023-04-29T19:38:14.314Z,8.04
2023-04-29T19:40:44.432Z,8.01
2023-04-29T19:43:13.743Z,7.98
2023-04-29T19:45:42.012Z,7.97
2023-04-29T19:48:11.475Z,7.96
2023-04-29T19:50:40.222Z,7.95
2023-04-29T19:53:08.383Z,7.92
2023-04-29T19:55:36.775Z,7.91
2023-04-29T19:58:06.676Z,7.90
2023-04-29T20:00:34.880Z,7.90
2023-04-29T20:03:03.785Z,7.89
2023-04-29T20:05:32.436Z,7.87
2023-04-29T20:08:02.340Z,7.84
2023-04-29T20:10:31.440Z,7.81
2023-04-29T20:12:59.829Z,7.82
2023-04-29T20:15:28.093Z,7.87
2023-04-29T20:17:56.355Z,7.88
2023-04-29T20:20:26.249Z,7.87
2023-04-29T20:22:58.212Z,7.84
2023-04-29T20:25:27.542Z,7.83
2023-04-29T20:27:56.910Z,7.82
2023-04-29T20:30:26.994Z,7.81
2023-04-29T20:32:55.287Z,7.80
2023-04-29T20:35:23.618Z,7.78
2023-04-29T20:37:52.097Z,7.75
2023-04-29T20:40:20.879Z,7.73
2023-04-29T20:42:49.162Z,7.71
2023-04-29T20:45:17.446Z,7.70
2023-04-29T20:47:45.894Z,7.67
2023-04-29T20:50:14.622Z,7.63
2023-04-29T20:52:43.503Z,7.60
2023-04-29T20:55:12.290Z,7.64
2023-04-29T20:57:40.465Z,7.65
2023-04-29T21:00:10.588Z,7.63
2023-04-29T21:02:38.776Z,7.61
2023-04-29T21:05:09.998Z,7.59
2023-04-29T21:07:38.622Z,7.55
2023-04-29T21:10:07.415Z,7.50
2023-04-29T21:12:36.169Z,7.41
2023-04-29T21:15:06.291Z,7.33
2023-04-29T21:17:34.601Z,7.24
2023-04-29T21:20:02.855Z,7.16
2023-04-29T21:22:31.018Z,7.09
2023-04-29T21:24:59.170Z,7.06
2023-04-29T21:27:27.402Z,7.07
2023-04-29T21:29:55.964Z,7.03
2023-04-29T21:32:24.685Z,6.96
2023-04-29T21:34:52.930Z,6.88
2023-04-29T21:37:21.285Z,6.86
2023-04-29T21:39:49.567Z,6.81
2023-04-29T21:42:21.447Z,6.78
2023-04-29T21:44:49.610Z,6.74
2023-04-29T21:47:17.872Z,6.67
2023-04-29T21:49:46.269Z,6.62
2023-04-29T21:52:15.778Z,6.56
2023-04-29T21:54:44.545Z,6.55
2023-04-29T21:57:12.651Z,6.58
2023-04-29T21:59:41.092Z,6.66
2023-04-29T22:02:22.439Z,6.72
2023-04-29T22:04:51.781Z,6.74
2023-04-29T22:07:21.193Z,6.73
2023-04-29T22:09:52.375Z,6.73
2023-04-29T22:12:21.946Z,6.73
2023-04-29T22:14:50.113Z,6.73
2023-04-29T22:17:18.392Z,6.73
2023-04-29T22:19:46.585Z,6.71
2023-04-29T22:22:14.731Z,6.68
2023-04-29T22:24:43.117Z,6.64
2023-04-29T22:27:11.299Z,6.59
2023-04-29T22:29:39.875Z,6.54
2023-04-29T22:32:08.507Z,6.49
2023-04-29T22:34:37.147Z,6.45
2023-04-29T22:37:05.420Z,6.41
2023-04-29T22:39:35.233Z,6.36
2023-04-29T22:42:04.841Z,6.31
2023-04-29T22:44:33.122Z,6.25
2023-04-29T22:47:02.120Z,6.21
2023-04-29T22:49:30.299Z,6.24
2023-04-29T22:51:58.587Z,6.23
2023-04-29T22:54:26.734Z,6.22
2023-04-29T22:56:58.393Z,6.19
2023-04-29T22:59:26.574Z,6.17
2023-04-29T23:01:56.064Z,6.16
2023-04-29T23:04:25.191Z,6.15
2023-04-29T23:06:53.908Z,6.15
2023-04-29T23:09:22.129Z,6.13
2023-04-29T23:11:50.324Z,6.11
2023-04-29T23:14:21.266Z,6.10
2023-04-29T23:16:49.726Z,6.10
2023-04-29T23:19:18.014Z,6.10
2023-04-29T23:21:46.280Z,6.09
2023-04-29T23:24:14.862Z,6.09
2023-04-29T23:26:43.243Z,6.10
2023-04-29T23:29:11.517Z,6.11
2023-04-29T23:31:39.918Z,6.10
2023-04-29T23:34:08.478Z,6.11
2023-04-29T23:36:36.754Z,6.19
2023-04-29T23:39:05.199Z,6.30
2023-04-29T23:41:33.821Z,6.39
2023-04-29T23:44:02.626Z,6.46
2023-04-29T23:46:31.169Z,6.53
2023-04-29T23:48:59.501Z,6.60
2023-04-29T23:51:27.669Z,6.65
2023-04-29T23:53:55.798Z,6.70
2023-04-29T23:56:25.940Z,6.73
2023-04-29T23:58:54.118Z,6.76
